EGGP/LPL METAR and TAF weather

Enter ICAO airport designator
Station Type Date Time Source
EGGP METAR 2021/07/29 01:50 UTC NOAA

EGGP 290150Z AUTO 27014KT 9999 FEW000/// BKN009/// OVC018/// 14/13 Q1005 RERA


Station Type Date Time Source
EGGP Decoded METAR 2021/07/29 01:50 UTC NOAA

Liverpool Airport , United Kingdom (EGGP) 53-20N 002-51W
Jul 28, 2021 - 09:50 PM EDT / 2021.07.29 0150 UTC
Wind: from the W (270 degrees) at 16 MPH (14 KT):0
Visibility: greater than 7 mile(s):0
Sky conditions: overcast
Temperature: 57 F (14 C)
Dew Point: 55 F (13 C)
Relative Humidity: 93%
Pressure (altimeter): 29.68 in. Hg (1005 hPa)
ob: EGGP 290150Z AUTO 27014KT 9999 FEW000/// BKN009/// OVC018/// 14/13 Q1005 RERA
cycle: 2

Station Type Date Time Source
EGGP TAF 2021/07/29 01:43 UTC NOAA

TAF
AMD EGGP 290135Z 2901/2924 25013KT 9999 SCT030
TEMPO 2901/2903 6000 SHRA BKN014 PROB30
TEMPO 2901/2902 26016G26KT 3000 +SHRA BKN008 BKN025CB
TEMPO 2902/2915 26016G26KT PROB30
TEMPO 2902/2907 BKN008 PROB40
TEMPO 2909/2912 7000 -RA BKN014
BECMG 2921/2924 09004KT

Example: see airport list